sensor_id;sensor_type;location;lat;lon;timestamp;temperature;humidity
21830;DHT22;11077;50.264;6.798;2023-09-30T00:01:11;13.00;99.90
21830;DHT22;11077;50.264;6.798;2023-09-30T00:03:40;12.90;99.90
21830;DHT22;11077;50.264;6.798;2023-09-30T00:06:07;12.90;99.90
21830;DHT22;11077;50.264;6.798;2023-09-30T00:08:35;12.90;99.90
21830;DHT22;11077;50.264;6.798;2023-09-30T00:11:05;12.80;99.90
21830;DHT22;11077;50.264;6.798;2023-09-30T00:13:42;12.80;99.90
21830;DHT22;11077;50.264;6.798;2023-09-30T00:16:09;12.70;99.90
21830;DHT22;11077;50.264;6.798;2023-09-30T00:18:40;12.70;99.90
21830;DHT22;11077;50.264;6.798;2023-09-30T00:21:07;12.70;99.90
21830;DHT22;11077;50.264;6.798;2023-09-30T00:23:34;12.70;99.90
21830;DHT22;11077;50.264;6.798;2023-09-30T00:26:01;12.70;99.90
21830;DHT22;11077;50.264;6.798;2023-09-30T00:28:32;12.60;99.90
21830;DHT22;11077;50.264;6.798;2023-09-30T00:31:00;12.50;99.90
21830;DHT22;11077;50.264;6.798;2023-09-30T00:33:27;12.60;99.90
21830;DHT22;11077;50.264;6.798;2023-09-30T00:35:55;12.50;99.90
21830;DHT22;11077;50.264;6.798;2023-09-30T00:38:28;12.50;99.90
21830;DHT22;11077;50.264;6.798;2023-09-30T00:40:55;12.50;99.90
21830;DHT22;11077;50.264;6.798;2023-09-30T00:43:24;12.50;99.90
21830;DHT22;11077;50.264;6.798;2023-09-30T00:46:04;12.50;99.90
21830;DHT22;11077;50.264;6.798;2023-09-30T00:48:33;12.40;99.90
21830;DHT22;11077;50.264;6.798;2023-09-30T00:51:00;12.50;99.90
21830;DHT22;11077;50.264;6.798;2023-09-30T00:53:28;12.40;99.90
21830;DHT22;11077;50.264;6.798;2023-09-30T00:55:56;12.40;99.90
21830;DHT22;11077;50.264;6.798;2023-09-30T00:58:25;12.40;99.90
21830;DHT22;11077;50.264;6.798;2023-09-30T01:00:56;12.40;99.90
21830;DHT22;11077;50.264;6.798;2023-09-30T01:03:25;12.40;99.90
21830;DHT22;11077;50.264;6.798;2023-09-30T01:06:00;12.40;99.90
21830;DHT22;11077;50.264;6.798;2023-09-30T01:08:27;12.40;99.90
21830;DHT22;11077;50.264;6.798;2023-09-30T01:10:55;12.40;99.90
21830;DHT22;11077;50.264;6.798;2023-09-30T01:13:22;12.40;99.90
21830;DHT22;11077;50.264;6.798;2023-09-30T01:15:56;12.40;99.90
21830;DHT22;11077;50.264;6.798;2023-09-30T01:18:26;12.40;99.90
21830;DHT22;11077;50.264;6.798;2023-09-30T01:20:54;12.40;99.90
21830;DHT22;11077;50.264;6.798;2023-09-30T01:23:22;12.30;99.90
21830;DHT22;11077;50.264;6.798;2023-09-30T01:25:49;12.40;99.90
21830;DHT22;11077;50.264;6.798;2023-09-30T01:28:18;12.40;99.90
21830;DHT22;11077;50.264;6.798;2023-09-30T01:30:45;12.40;99.90
21830;DHT22;11077;50.264;6.798;2023-09-30T01:33:12;12.40;99.90
21830;DHT22;11077;50.264;6.798;2023-09-30T01:35:39;12.40;99.90
21830;DHT22;11077;50.264;6.798;2023-09-30T01:38:06;12.40;99.90
21830;DHT22;11077;50.264;6.798;2023-09-30T01:40:36;12.40;99.90
21830;DHT22;11077;50.264;6.798;2023-09-30T01:43:03;12.40;99.90
21830;DHT22;11077;50.264;6.798;2023-09-30T01:45:32;12.40;99.90
21830;DHT22;11077;50.264;6.798;2023-09-30T01:48:01;12.40;99.90
21830;DHT22;11077;50.264;6.798;2023-09-30T01:50:31;12.40;99.90
21830;DHT22;11077;50.264;6.798;2023-09-30T01:52:58;12.40;99.90
21830;DHT22;11077;50.264;6.798;2023-09-30T01:55:26;12.40;99.90
21830;DHT22;11077;50.264;6.798;2023-09-30T01:58:00;12.40;99.90
21830;DHT22;11077;50.264;6.798;2023-09-30T02:00:27;12.40;99.90
21830;DHT22;11077;50.264;6.798;2023-09-30T02:02:55;12.40;99.90
21830;DHT22;11077;50.264;6.798;2023-09-30T02:05:28;12.40;99.90
21830;DHT22;11077;50.264;6.798;2023-09-30T02:07:56;12.40;99.90
21830;DHT22;11077;50.264;6.798;2023-09-30T02:10:23;12.30;99.90
21830;DHT22;11077;50.264;6.798;2023-09-30T02:12:59;12.30;99.90
21830;DHT22;11077;50.264;6.798;2023-09-30T02:15:27;12.30;99.90
21830;DHT22;11077;50.264;6.798;2023-09-30T02:17:54;12.10;99.90
21830;DHT22;11077;50.264;6.798;2023-09-30T02:20:21;12.10;99.90
21830;DHT22;11077;50.264;6.798;2023-09-30T02:22:52;12.00;99.90
21830;DHT22;11077;50.264;6.798;2023-09-30T02:25:23;12.00;99.90
21830;DHT22;11077;50.264;6.798;2023-09-30T02:27:51;11.90;99.90
21830;DHT22;11077;50.264;6.798;2023-09-30T02:30:18;11.80;99.90
21830;DHT22;11077;50.264;6.798;2023-09-30T02:32:46;11.80;99.90
21830;DHT22;11077;50.264;6.798;2023-09-30T02:35:14;11.70;99.90
21830;DHT22;11077;50.264;6.798;2023-09-30T02:37:42;11.70;99.90
21830;DHT22;11077;50.264;6.798;2023-09-30T02:40:10;11.60;99.90
21830;DHT22;11077;50.264;6.798;2023-09-30T02:42:41;11.70;99.90
21830;DHT22;11077;50.264;6.798;2023-09-30T02:45:10;11.60;99.90
21830;DHT22;11077;50.264;6.798;2023-09-30T02:47:39;11.60;99.90
21830;DHT22;11077;50.264;6.798;2023-09-30T02:50:10;11.60;99.90
21830;DHT22;11077;50.264;6.798;2023-09-30T02:52:38;11.60;99.90
21830;DHT22;11077;50.264;6.798;2023-09-30T02:55:07;11.60;99.90
21830;DHT22;11077;50.264;6.798;2023-09-30T02:57:35;11.50;99.90
21830;DHT22;11077;50.264;6.798;2023-09-30T03:00:04;11.50;99.90
21830;DHT22;11077;50.264;6.798;2023-09-30T03:02:39;11.50;99.90
21830;DHT22;11077;50.264;6.798;2023-09-30T03:05:09;11.40;99.90
21830;DHT22;11077;50.264;6.798;2023-09-30T03:07:36;11.50;99.90
21830;DHT22;11077;50.264;6.798;2023-09-30T03:10:04;11.40;99.90
21830;DHT22;11077;50.264;6.798;2023-09-30T03:12:34;11.30;99.90
21830;DHT22;11077;50.264;6.798;2023-09-30T03:15:01;11.20;99.90
21830;DHT22;11077;50.264;6.798;2023-09-30T03:17:30;11.20;99.90
21830;DHT22;11077;50.264;6.798;2023-09-30T03:19:57;11.10;99.90
21830;DHT22;11077;50.264;6.798;2023-09-30T03:22:26;11.10;99.90
21830;DHT22;11077;50.264;6.798;2023-09-30T03:24:54;11.00;99.90
21830;DHT22;11077;50.264;6.798;2023-09-30T03:27:22;10.90;99.90
21830;DHT22;11077;50.264;6.798;2023-09-30T03:29:50;10.90;99.90
21830;DHT22;11077;50.264;6.798;2023-09-30T03:32:17;10.90;99.90
21830;DHT22;11077;50.264;6.798;2023-09-30T03:34:44;10.90;99.90
21830;DHT22;11077;50.264;6.798;2023-09-30T03:37:12;10.90;99.90
21830;DHT22;11077;50.264;6.798;2023-09-30T03:39:42;10.90;99.90
21830;DHT22;11077;50.264;6.798;2023-09-30T03:42:10;10.80;99.90
21830;DHT22;11077;50.264;6.798;2023-09-30T03:44:37;10.80;99.90
21830;DHT22;11077;50.264;6.798;2023-09-30T03:47:05;10.80;99.90
21830;DHT22;11077;50.264;6.798;2023-09-30T03:49:34;10.80;99.90
21830;DHT22;11077;50.264;6.798;2023-09-30T03:52:01;10.80;99.90
21830;DHT22;11077;50.264;6.798;2023-09-30T03:54:29;10.80;99.90
21830;DHT22;11077;50.264;6.798;2023-09-30T03:56:58;10.80;99.90
21830;DHT22;11077;50.264;6.798;2023-09-30T03:59:25;10.80;99.90
21830;DHT22;11077;50.264;6.798;2023-09-30T04:01:53;10.80;99.90
21830;DHT22;11077;50.264;6.798;2023-09-30T04:04:21;10.80;99.90
21830;DHT22;11077;50.264;6.798;2023-09-30T04:06:52;10.80;99.90
21830;DHT22;11077;50.264;6.798;2023-09-30T04:09:19;10.80;99.90
21830;DHT22;11077;50.264;6.798;2023-09-30T04:11:46;10.80;99.90
21830;DHT22;11077;50.264;6.798;2023-09-30T04:14:15;10.80;99.90
21830;DHT22;11077;50.264;6.798;2023-09-30T04:16:43;10.70;99.90
21830;DHT22;11077;50.264;6.798;2023-09-30T04:19:10;10.80;99.90
21830;DHT22;11077;50.264;6.798;2023-09-30T04:21:39;10.80;99.90
21830;DHT22;11077;50.264;6.798;2023-09-30T04:24:07;10.80;99.90
21830;DHT22;11077;50.264;6.798;2023-09-30T04:26:35;10.70;99.90
21830;DHT22;11077;50.264;6.798;2023-09-30T04:29:02;10.70;99.90
21830;DHT22;11077;50.264;6.798;2023-09-30T04:31:38;10.70;99.90
21830;DHT22;11077;50.264;6.798;2023-09-30T04:34:07;10.60;99.90
21830;DHT22;11077;50.264;6.798;2023-09-30T04:36:34;10.60;99.90
21830;DHT22;11077;50.264;6.798;2023-09-30T04:39:02;10.50;99.90
21830;DHT22;11077;50.264;6.798;2023-09-30T04:41:31;10.50;99.90
21830;DHT22;11077;50.264;6.798;2023-09-30T04:43:58;10.50;99.90
21830;DHT22;11077;50.264;6.798;2023-09-30T04:46:25;10.50;99.90
21830;DHT22;11077;50.264;6.798;2023-09-30T04:48:55;10.50;99.90
21830;DHT22;11077;50.264;6.798;2023-09-30T04:51:22;10.50;99.90
21830;DHT22;11077;50.264;6.798;2023-09-30T04:53:51;10.40;99.90
21830;DHT22;11077;50.264;6.798;2023-09-30T04:56:20;10.40;99.90
21830;DHT22;11077;50.264;6.798;2023-09-30T04:58:48;10.40;99.90
21830;DHT22;11077;50.264;6.798;2023-09-30T05:01:15;10.30;99.90
21830;DHT22;11077;50.264;6.798;2023-09-30T05:03:44;10.30;99.90
21830;DHT22;11077;50.264;6.798;2023-09-30T05:06:15;10.20;99.90
21830;DHT22;11077;50.264;6.798;2023-09-30T05:08:43;10.20;99.90
21830;DHT22;11077;50.264;6.798;2023-09-30T05:11:10;10.10;99.90
21830;DHT22;11077;50.264;6.798;2023-09-30T05:13:37;10.00;99.90
21830;DHT22;11077;50.264;6.798;2023-09-30T05:16:04;10.00;99.90
21830;DHT22;11077;50.264;6.798;2023-09-30T05:18:33;10.00;99.90
21830;DHT22;11077;50.264;6.798;2023-09-30T05:21:01;10.00;99.90
21830;DHT22;11077;50.264;6.798;2023-09-30T05:23:30;10.00;99.90
21830;DHT22;11077;50.264;6.798;2023-09-30T05:25:58;10.00;99.90
21830;DHT22;11077;50.264;6.798;2023-09-30T05:28:26;10.00;99.90
21830;DHT22;11077;50.264;6.798;2023-09-30T05:30:54;9.90;99.90
21830;DHT22;11077;50.264;6.798;2023-09-30T05:33:22;9.90;99.90
21830;DHT22;11077;50.264;6.798;2023-09-30T05:35:50;9.90;99.90
21830;DHT22;11077;50.264;6.798;2023-09-30T05:38:17;9.90;99.90
21830;DHT22;11077;50.264;6.798;2023-09-30T05:40:50;9.80;99.90
21830;DHT22;11077;50.264;6.798;2023-09-30T05:43:18;9.80;99.90
21830;DHT22;11077;50.264;6.798;2023-09-30T05:45:47;9.80;99.90
21830;DHT22;11077;50.264;6.798;2023-09-30T05:48:20;9.80;99.90
21830;DHT22;11077;50.264;6.798;2023-09-30T05:50:48;9.90;99.90
21830;DHT22;11077;50.264;6.798;2023-09-30T05:53:15;9.80;99.90
21830;DHT22;11077;50.264;6.798;2023-09-30T05:55:42;9.80;99.90
21830;DHT22;11077;50.264;6.798;2023-09-30T05:58:18;9.80;99.90
21830;DHT22;11077;50.264;6.798;2023-09-30T06:00:48;9.80;99.90
21830;DHT22;11077;50.264;6.798;2023-09-30T06:03:19;9.80;99.90
21830;DHT22;11077;50.264;6.798;2023-09-30T06:05:47;9.80;99.90
21830;DHT22;11077;50.264;6.798;2023-09-30T06:08:16;9.80;99.90
21830;DHT22;11077;50.264;6.798;2023-09-30T06:10:44;9.80;99.90
21830;DHT22;11077;50.264;6.798;2023-09-30T06:13:12;9.80;99.90
21830;DHT22;11077;50.264;6.798;2023-09-30T06:15:43;9.80;99.90
21830;DHT22;11077;50.264;6.798;2023-09-30T06:18:12;9.80;99.90
21830;DHT22;11077;50.264;6.798;2023-09-30T06:20:45;9.80;99.90
21830;DHT22;11077;50.264;6.798;2023-09-30T06:23:12;9.90;99.90
21830;DHT22;11077;50.264;6.798;2023-09-30T06:25:40;9.90;99.90
21830;DHT22;11077;50.264;6.798;2023-09-30T06:28:07;9.90;99.90
21830;DHT22;11077;50.264;6.798;2023-09-30T06:30:35;9.90;99.90
21830;DHT22;11077;50.264;6.798;2023-09-30T06:33:04;10.00;99.90
21830;DHT22;11077;50.264;6.798;2023-09-30T06:35:33;10.00;99.90
21830;DHT22;11077;50.264;6.798;2023-09-30T06:38:04;10.10;99.90
21830;DHT22;11077;50.264;6.798;2023-09-30T06:40:32;10.10;99.90
21830;DHT22;11077;50.264;6.798;2023-09-30T06:43:00;10.10;99.90
21830;DHT22;11077;50.264;6.798;2023-09-30T06:45:29;10.10;99.90
21830;DHT22;11077;50.264;6.798;2023-09-30T06:47:58;10.10;99.90
21830;DHT22;11077;50.264;6.798;2023-09-30T06:50:27;10.20;99.90
21830;DHT22;11077;50.264;6.798;2023-09-30T06:52:54;10.20;99.90
21830;DHT22;11077;50.264;6.798;2023-09-30T06:55:21;10.30;99.90
21830;DHT22;11077;50.264;6.798;2023-09-30T06:57:50;10.20;99.90
21830;DHT22;11077;50.264;6.798;2023-09-30T07:00:18;10.30;99.90
21830;DHT22;11077;50.264;6.798;2023-09-30T07:02:45;10.40;99.90
21830;DHT22;11077;50.264;6.798;2023-09-30T07:05:14;10.40;99.90
21830;DHT22;11077;50.264;6.798;2023-09-30T07:07:43;10.50;99.90
21830;DHT22;11077;50.264;6.798;2023-09-30T07:10:11;10.50;99.90
21830;DHT22;11077;50.264;6.798;2023-09-30T07:12:41;10.60;99.90
21830;DHT22;11077;50.264;6.798;2023-09-30T07:15:10;10.60;99.90
21830;DHT22;11077;50.264;6.798;2023-09-30T07:17:38;10.70;99.90
21830;DHT22;11077;50.264;6.798;2023-09-30T07:20:07;10.80;99.90
21830;DHT22;11077;50.264;6.798;2023-09-30T07:22:35;10.80;99.90
21830;DHT22;11077;50.264;6.798;2023-09-30T07:25:05;10.90;99.90
21830;DHT22;11077;50.264;6.798;2023-09-30T07:27:32;10.90;99.90
21830;DHT22;11077;50.264;6.798;2023-09-30T07:29:59;11.00;99.90
21830;DHT22;11077;50.264;6.798;2023-09-30T07:32:27;11.00;99.90
21830;DHT22;11077;50.264;6.798;2023-09-30T07:34:55;11.20;99.90
21830;DHT22;11077;50.264;6.798;2023-09-30T07:37:31;11.30;99.90
21830;DHT22;11077;50.264;6.798;2023-09-30T07:40:00;11.40;99.90
21830;DHT22;11077;50.264;6.798;2023-09-30T07:42:28;11.50;99.90
21830;DHT22;11077;50.264;6.798;2023-09-30T07:44:56;11.70;99.90
21830;DHT22;11077;50.264;6.798;2023-09-30T07:47:26;11.80;99.90
21830;DHT22;11077;50.264;6.798;2023-09-30T07:49:53;11.90;99.90
21830;DHT22;11077;50.264;6.798;2023-09-30T07:52:23;12.10;99.90
21830;DHT22;11077;50.264;6.798;2023-09-30T07:55:01;12.30;99.90
21830;DHT22;11077;50.264;6.798;2023-09-30T07:57:41;12.40;99.90
21830;DHT22;11077;50.264;6.798;2023-09-30T08:00:15;12.50;99.90
21830;DHT22;11077;50.264;6.798;2023-09-30T08:02:47;12.50;99.90
21830;DHT22;11077;50.264;6.798;2023-09-30T08:05:17;12.50;99.90
21830;DHT22;11077;50.264;6.798;2023-09-30T08:07:44;12.60;99.90
21830;DHT22;11077;50.264;6.798;2023-09-30T08:10:37;12.60;99.90
21830;DHT22;11077;50.264;6.798;2023-09-30T08:13:30;12.70;99.90
21830;DHT22;11077;50.264;6.798;2023-09-30T08:15:58;12.80;99.90
21830;DHT22;11077;50.264;6.798;2023-09-30T08:18:25;12.80;99.90
21830;DHT22;11077;50.264;6.798;2023-09-30T08:20:53;12.80;99.90
21830;DHT22;11077;50.264;6.798;2023-09-30T08:23:21;12.80;99.90
21830;DHT22;11077;50.264;6.798;2023-09-30T08:26:10;12.80;99.90
21830;DHT22;11077;50.264;6.798;2023-09-30T08:28:40;12.80;99.90
21830;DHT22;11077;50.264;6.798;2023-09-30T08:31:13;12.80;99.90
21830;DHT22;11077;50.264;6.798;2023-09-30T08:36:26;12.80;99.90
21830;DHT22;11077;50.264;6.798;2023-09-30T08:38:54;12.90;99.90
21830;DHT22;11077;50.264;6.798;2023-09-30T08:41:27;12.90;99.90
21830;DHT22;11077;50.264;6.798;2023-09-30T08:44:05;12.90;99.90
21830;DHT22;11077;50.264;6.798;2023-09-30T08:46:33;12.90;99.90
21830;DHT22;11077;50.264;6.798;2023-09-30T08:49:02;12.90;99.90
21830;DHT22;11077;50.264;6.798;2023-09-30T08:51:30;13.00;99.90
21830;DHT22;11077;50.264;6.798;2023-09-30T08:53:59;13.00;99.90
21830;DHT22;11077;50.264;6.798;2023-09-30T08:56:28;13.10;99.90
21830;DHT22;11077;50.264;6.798;2023-09-30T08:58:59;13.20;99.90
21830;DHT22;11077;50.264;6.798;2023-09-30T09:04:32;13.40;99.90
21830;DHT22;11077;50.264;6.798;2023-09-30T09:07:00;13.40;99.90
21830;DHT22;11077;50.264;6.798;2023-09-30T09:09:27;13.50;99.90
21830;DHT22;11077;50.264;6.798;2023-09-30T09:11:54;13.70;99.90
21830;DHT22;11077;50.264;6.798;2023-09-30T09:14:40;13.80;99.90
21830;DHT22;11077;50.264;6.798;2023-09-30T09:17:47;14.00;99.90
21830;DHT22;11077;50.264;6.798;2023-09-30T09:20:23;14.10;99.90
21830;DHT22;11077;50.264;6.798;2023-09-30T09:22:54;14.20;99.90
21830;DHT22;11077;50.264;6.798;2023-09-30T09:25:28;14.40;99.90
21830;DHT22;11077;50.264;6.798;2023-09-30T09:27:56;14.50;99.90
21830;DHT22;11077;50.264;6.798;2023-09-30T09:30:25;14.60;99.90
21830;DHT22;11077;50.264;6.798;2023-09-30T09:32:54;14.70;99.90
21830;DHT22;11077;50.264;6.798;2023-09-30T09:35:25;14.70;99.90
21830;DHT22;11077;50.264;6.798;2023-09-30T09:37:59;14.80;99.90
21830;DHT22;11077;50.264;6.798;2023-09-30T09:40:29;14.90;99.90
21830;DHT22;11077;50.264;6.798;2023-09-30T09:42:59;14.80;99.90
21830;DHT22;11077;50.264;6.798;2023-09-30T09:45:32;14.80;99.90
21830;DHT22;11077;50.264;6.798;2023-09-30T09:48:00;14.60;99.90
21830;DHT22;11077;50.264;6.798;2023-09-30T09:50:32;14.70;99.90
21830;DHT22;11077;50.264;6.798;2023-09-30T09:53:02;14.90;99.90
21830;DHT22;11077;50.264;6.798;2023-09-30T09:55:31;15.00;99.90
21830;DHT22;11077;50.264;6.798;2023-09-30T09:58:02;15.10;99.90
21830;DHT22;11077;50.264;6.798;2023-09-30T10:00:30;15.30;99.90
21830;DHT22;11077;50.264;6.798;2023-09-30T10:02:59;15.50;99.90
21830;DHT22;11077;50.264;6.798;2023-09-30T10:05:27;15.50;99.90
21830;DHT22;11077;50.264;6.798;2023-09-30T10:08:00;15.40;99.90
21830;DHT22;11077;50.264;6.798;2023-09-30T10:10:36;15.30;99.90
21830;DHT22;11077;50.264;6.798;2023-09-30T10:13:04;15.30;99.90
21830;DHT22;11077;50.264;6.798;2023-09-30T10:15:38;15.40;99.90
21830;DHT22;11077;50.264;6.798;2023-09-30T10:18:09;15.60;99.90
21830;DHT22;11077;50.264;6.798;2023-09-30T10:20:38;15.50;99.90
21830;DHT22;11077;50.264;6.798;2023-09-30T10:23:34;15.60;99.90
21830;DHT22;11077;50.264;6.798;2023-09-30T10:26:21;15.80;99.90
21830;DHT22;11077;50.264;6.798;2023-09-30T10:28:49;15.90;99.90
21830;DHT22;11077;50.264;6.798;2023-09-30T10:31:17;15.90;99.90
21830;DHT22;11077;50.264;6.798;2023-09-30T10:34:17;15.70;99.90
21830;DHT22;11077;50.264;6.798;2023-09-30T10:36:45;15.90;99.90
21830;DHT22;11077;50.264;6.798;2023-09-30T10:39:14;15.80;99.90
21830;DHT22;11077;50.264;6.798;2023-09-30T10:41:50;16.00;99.90
21830;DHT22;11077;50.264;6.798;2023-09-30T10:44:33;16.10;99.90
21830;DHT22;11077;50.264;6.798;2023-09-30T10:47:36;16.10;99.90
21830;DHT22;11077;50.264;6.798;2023-09-30T10:53:11;16.00;99.90
21830;DHT22;11077;50.264;6.798;2023-09-30T10:55:39;15.90;99.90
21830;DHT22;11077;50.264;6.798;2023-09-30T10:58:08;15.70;99.90
21830;DHT22;11077;50.264;6.798;2023-09-30T11:00:35;15.80;99.90
21830;DHT22;11077;50.264;6.798;2023-09-30T11:03:04;15.90;99.90
21830;DHT22;11077;50.264;6.798;2023-09-30T11:05:32;16.10;99.90
21830;DHT22;11077;50.264;6.798;2023-09-30T11:08:02;16.30;99.90
21830;DHT22;11077;50.264;6.798;2023-09-30T11:10:29;16.50;99.90
21830;DHT22;11077;50.264;6.798;2023-09-30T11:12:59;16.70;99.90
21830;DHT22;11077;50.264;6.798;2023-09-30T11:15:26;16.80;99.90
21830;DHT22;11077;50.264;6.798;2023-09-30T11:17:54;17.00;99.90
21830;DHT22;11077;50.264;6.798;2023-09-30T11:20:39;17.30;99.90
21830;DHT22;11077;50.264;6.798;2023-09-30T11:23:07;17.60;99.90
21830;DHT22;11077;50.264;6.798;2023-09-30T11:25:36;17.50;99.90
21830;DHT22;11077;50.264;6.798;2023-09-30T11:28:14;17.50;99.90
21830;DHT22;11077;50.264;6.798;2023-09-30T11:30:58;17.50;99.90
21830;DHT22;11077;50.264;6.798;2023-09-30T11:33:26;17.10;99.90
21830;DHT22;11077;50.264;6.798;2023-09-30T11:35:58;17.00;99.90
21830;DHT22;11077;50.264;6.798;2023-09-30T11:38:26;16.80;99.90
21830;DHT22;11077;50.264;6.798;2023-09-30T11:41:01;16.60;99.90
21830;DHT22;11077;50.264;6.798;2023-09-30T11:43:31;16.60;99.90
21830;DHT22;11077;50.264;6.798;2023-09-30T11:46:07;16.50;99.90
21830;DHT22;11077;50.264;6.798;2023-09-30T11:48:35;16.40;99.90
21830;DHT22;11077;50.264;6.798;2023-09-30T11:51:03;16.40;99.90
21830;DHT22;11077;50.264;6.798;2023-09-30T11:53:31;16.60;99.90
21830;DHT22;11077;50.264;6.798;2023-09-30T11:55:58;16.70;99.90
21830;DHT22;11077;50.264;6.798;2023-09-30T11:58:28;16.90;99.90
21830;DHT22;11077;50.264;6.798;2023-09-30T12:00:59;17.20;99.90
21830;DHT22;11077;50.264;6.798;2023-09-30T12:03:27;17.30;99.90
21830;DHT22;11077;50.264;6.798;2023-09-30T12:05:54;17.60;99.90
21830;DHT22;11077;50.264;6.798;2023-09-30T12:08:22;17.90;99.90
21830;DHT22;11077;50.264;6.798;2023-09-30T12:10:49;18.00;99.90
21830;DHT22;11077;50.264;6.798;2023-09-30T12:13:17;18.20;99.90
21830;DHT22;11077;50.264;6.798;2023-09-30T12:15:44;18.30;99.90
21830;DHT22;11077;50.264;6.798;2023-09-30T12:18:13;18.50;99.90
21830;DHT22;11077;50.264;6.798;2023-09-30T12:20:43;18.60;99.90
21830;DHT22;11077;50.264;6.798;2023-09-30T12:23:11;18.60;99.90
21830;DHT22;11077;50.264;6.798;2023-09-30T12:25:38;18.40;99.90
21830;DHT22;11077;50.264;6.798;2023-09-30T12:28:05;18.30;99.90
21830;DHT22;11077;50.264;6.798;2023-09-30T12:30:32;18.30;99.90
21830;DHT22;11077;50.264;6.798;2023-09-30T12:33:00;18.20;99.90
21830;DHT22;11077;50.264;6.798;2023-09-30T12:35:29;18.10;99.90
21830;DHT22;11077;50.264;6.798;2023-09-30T12:37:56;18.00;99.90
21830;DHT22;11077;50.264;6.798;2023-09-30T12:40:23;17.80;99.90
21830;DHT22;11077;50.264;6.798;2023-09-30T12:42:50;17.70;99.90
21830;DHT22;11077;50.264;6.798;2023-09-30T12:45:18;17.70;99.90
21830;DHT22;11077;50.264;6.798;2023-09-30T12:47:45;17.80;99.90
21830;DHT22;11077;50.264;6.798;2023-09-30T12:50:14;17.70;99.90
21830;DHT22;11077;50.264;6.798;2023-09-30T12:52:42;17.70;99.90
21830;DHT22;11077;50.264;6.798;2023-09-30T12:55:10;17.70;99.90
21830;DHT22;11077;50.264;6.798;2023-09-30T12:57:37;17.60;99.90
21830;DHT22;11077;50.264;6.798;2023-09-30T13:00:06;17.60;99.90
21830;DHT22;11077;50.264;6.798;2023-09-30T13:02:35;17.60;99.90
21830;DHT22;11077;50.264;6.798;2023-09-30T13:05:02;17.60;99.90
21830;DHT22;11077;50.264;6.798;2023-09-30T13:07:31;17.70;99.90
21830;DHT22;11077;50.264;6.798;2023-09-30T13:10:00;17.70;99.90
21830;DHT22;11077;50.264;6.798;2023-09-30T13:12:28;17.80;99.90
21830;DHT22;11077;50.264;6.798;2023-09-30T13:14:55;17.80;99.90
21830;DHT22;11077;50.264;6.798;2023-09-30T13:17:22;17.70;99.90
21830;DHT22;11077;50.264;6.798;2023-09-30T13:19:50;17.70;99.90
21830;DHT22;11077;50.264;6.798;2023-09-30T13:22:18;17.70;99.90
21830;DHT22;11077;50.264;6.798;2023-09-30T13:24:45;17.70;99.90
21830;DHT22;11077;50.264;6.798;2023-09-30T13:27:15;17.70;99.90
21830;DHT22;11077;50.264;6.798;2023-09-30T13:29:43;17.70;99.90
21830;DHT22;11077;50.264;6.798;2023-09-30T13:32:11;17.70;99.90
21830;DHT22;11077;50.264;6.798;2023-09-30T13:34:39;17.70;99.90
21830;DHT22;11077;50.264;6.798;2023-09-30T13:37:07;17.70;99.90
21830;DHT22;11077;50.264;6.798;2023-09-30T13:39:34;17.70;99.90
21830;DHT22;11077;50.264;6.798;2023-09-30T13:42:01;17.70;99.90
21830;DHT22;11077;50.264;6.798;2023-09-30T13:44:29;17.70;99.90
21830;DHT22;11077;50.264;6.798;2023-09-30T13:46:56;17.70;99.90
21830;DHT22;11077;50.264;6.798;2023-09-30T13:49:24;17.70;99.90
21830;DHT22;11077;50.264;6.798;2023-09-30T13:51:51;17.60;99.90
21830;DHT22;11077;50.264;6.798;2023-09-30T13:54:18;17.50;99.90
21830;DHT22;11077;50.264;6.798;2023-09-30T13:56:45;17.40;99.90
21830;DHT22;11077;50.264;6.798;2023-09-30T13:59:13;17.40;99.90
21830;DHT22;11077;50.264;6.798;2023-09-30T14:01:41;17.40;99.90
21830;DHT22;11077;50.264;6.798;2023-09-30T14:04:09;17.40;99.90
21830;DHT22;11077;50.264;6.798;2023-09-30T14:06:36;17.40;99.90
21830;DHT22;11077;50.264;6.798;2023-09-30T14:09:03;17.20;99.90
21830;DHT22;11077;50.264;6.798;2023-09-30T14:11:31;17.30;99.90
21830;DHT22;11077;50.264;6.798;2023-09-30T14:13:58;17.20;99.90
21830;DHT22;11077;50.264;6.798;2023-09-30T14:16:26;17.20;99.90
21830;DHT22;11077;50.264;6.798;2023-09-30T14:18:55;17.20;99.90
21830;DHT22;11077;50.264;6.798;2023-09-30T14:21:22;17.20;99.90
21830;DHT22;11077;50.264;6.798;2023-09-30T14:23:50;17.20;99.90
21830;DHT22;11077;50.264;6.798;2023-09-30T14:26:17;17.20;99.90
21830;DHT22;11077;50.264;6.798;2023-09-30T14:28:44;17.20;99.90
21830;DHT22;11077;50.264;6.798;2023-09-30T14:31:11;17.30;99.90
21830;DHT22;11077;50.264;6.798;2023-09-30T14:33:39;17.20;99.90
21830;DHT22;11077;50.264;6.798;2023-09-30T14:36:07;17.20;99.90
21830;DHT22;11077;50.264;6.798;2023-09-30T14:38:35;17.30;99.90
21830;DHT22;11077;50.264;6.798;2023-09-30T14:41:06;17.30;99.90
21830;DHT22;11077;50.264;6.798;2023-09-30T14:43:35;17.30;99.90
21830;DHT22;11077;50.264;6.798;2023-09-30T14:46:03;17.40;99.90
21830;DHT22;11077;50.264;6.798;2023-09-30T14:48:30;17.40;99.90
21830;DHT22;11077;50.264;6.798;2023-09-30T14:50:58;17.40;99.90
21830;DHT22;11077;50.264;6.798;2023-09-30T14:53:26;17.40;99.90
21830;DHT22;11077;50.264;6.798;2023-09-30T14:55:53;17.40;99.90
21830;DHT22;11077;50.264;6.798;2023-09-30T14:58:21;17.40;99.90
21830;DHT22;11077;50.264;6.798;2023-09-30T15:00:48;17.50;99.90
21830;DHT22;11077;50.264;6.798;2023-09-30T15:03:15;17.50;99.90
21830;DHT22;11077;50.264;6.798;2023-09-30T15:05:42;17.50;99.90
21830;DHT22;11077;50.264;6.798;2023-09-30T15:08:09;17.40;99.90
21830;DHT22;11077;50.264;6.798;2023-09-30T15:10:38;17.40;99.90
21830;DHT22;11077;50.264;6.798;2023-09-30T15:13:05;17.40;99.90
21830;DHT22;11077;50.264;6.798;2023-09-30T15:15:36;17.30;99.90
21830;DHT22;11077;50.264;6.798;2023-09-30T15:18:04;17.30;99.90
21830;DHT22;11077;50.264;6.798;2023-09-30T15:20:38;17.20;99.90
21830;DHT22;11077;50.264;6.798;2023-09-30T15:23:06;17.20;99.90
21830;DHT22;11077;50.264;6.798;2023-09-30T15:25:33;17.20;99.90
21830;DHT22;11077;50.264;6.798;2023-09-30T15:28:02;17.20;99.90
21830;DHT22;11077;50.264;6.798;2023-09-30T15:30:29;17.30;99.90
21830;DHT22;11077;50.264;6.798;2023-09-30T15:32:57;17.40;99.90
21830;DHT22;11077;50.264;6.798;2023-09-30T15:35:24;17.40;99.90
21830;DHT22;11077;50.264;6.798;2023-09-30T15:37:51;17.40;99.90
21830;DHT22;11077;50.264;6.798;2023-09-30T15:40:18;17.40;99.90
21830;DHT22;11077;50.264;6.798;2023-09-30T15:42:45;17.40;99.90
21830;DHT22;11077;50.264;6.798;2023-09-30T15:45:14;17.40;99.90
21830;DHT22;11077;50.264;6.798;2023-09-30T15:47:43;17.40;99.90
21830;DHT22;11077;50.264;6.798;2023-09-30T15:50:11;17.40;99.90
21830;DHT22;11077;50.264;6.798;2023-09-30T15:52:39;17.40;99.90
21830;DHT22;11077;50.264;6.798;2023-09-30T15:55:07;17.40;99.90